Time;durP1;ratioP1;P1;durP2;ratioP2;P2;SDS_P1;SDS_P2;PMS_P1;PMS_P2;Temp;Humidity;BMP_temperature;BMP_pressure;BME280_temperature;BME280_humidity;BME280_pressure;Samples;Min_cycle;Max_cycle;Signal;HPM_P1;HPM_P2
2023/08/02 00:01:59;;;;;;;;;;;;;;;25.38;62.50;99909.63;7401013;19;1020;-48
2023/08/02 00:04:27;;;;;;;;;;;;;;;25.40;62.35;99899.41;7398752;19;2004;-48
2023/08/02 00:06:56;;;;;;;;;;;;;;;25.37;62.30;99902.53;7399067;19;1589;-48
2023/08/02 00:09:24;;;;;;;;;;;;;;;25.37;62.59;99905.25;7397321;19;1841;-48
2023/08/02 00:11:55;;;;;;;;;;;;;;;25.45;62.21;99900.72;7398385;19;1439;-48
2023/08/02 00:14:23;;;;;;;;;;;;;;;25.40;62.30;99904.84;7397366;19;1852;-48
2023/08/02 00:16:52;;;;;;;;;;;;;;;25.47;62.13;99913.03;7399489;19;1695;-48
2023/08/02 00:19:20;;;;;;;;;;;;;;;25.42;62.29;99909.22;7398272;19;1743;-48
2023/08/02 00:21:49;;;;;;;;;;;;;;;25.39;62.42;99900.47;7398960;19;1660;-48
2023/08/02 00:24:17;;;;;;;;;;;;;;;25.42;62.43;99920.06;7399782;19;1951;-48
2023/08/02 00:26:46;;;;;;;;;;;;;;;25.36;62.49;99919.81;7399412;19;1035;-48
2023/08/02 00:29:17;;;;;;;;;;;;;;;25.42;62.27;99920.06;7397056;19;1464;-48
2023/08/02 00:31:45;;;;;;;;;;;;;;;25.40;62.32;99922.94;7397814;19;1501;-48
2023/08/02 00:34:13;;;;;;;;;;;;;;;25.42;62.40;99922.75;7397250;19;1867;-48
2023/08/02 00:36:41;;;;;;;;;;;;;;;25.37;62.53;99920.66;7397608;19;1843;-48
2023/08/02 00:39:10;;;;;;;;;;;;;;;25.38;62.50;99925.03;7397705;19;1210;-48
2023/08/02 00:41:38;;;;;;;;;;;;;;;25.34;62.60;99916.47;7396921;19;1668;-48
2023/08/02 00:44:06;;;;;;;;;;;;;;;25.34;62.48;99902.94;7397073;19;1666;-48
2023/08/02 00:46:37;;;;;;;;;;;;;;;25.36;62.47;99917.09;7398208;19;1375;-48
2023/08/02 00:49:06;;;;;;;;;;;;;;;25.34;62.48;99913.75;7397684;19;1395;-48
2023/08/02 00:51:35;;;;;;;;;;;;;;;25.34;62.67;99916.47;7397088;19;1469;-48
2023/08/02 00:54:05;;;;;;;;;;;;;;;25.33;62.41;99917.50;7397682;19;1855;-48
2023/08/02 00:56:33;;;;;;;;;;;;;;;25.32;62.53;99915.81;7399057;19;1019;-48
2023/08/02 00:59:01;;;;;;;;;;;;;;;25.33;62.62;99920.22;7398741;19;1094;-48
2023/08/02 01:01:30;;;;;;;;;;;;;;;25.34;62.65;99919.16;7397667;19;2129;-48
2023/08/02 01:04:01;;;;;;;;;;;;;;;25.35;62.45;99912.72;7396348;19;1921;-48
2023/08/02 01:06:31;;;;;;;;;;;;;;;25.34;62.41;99911.03;7396760;19;1842;-48
2023/08/02 01:09:02;;;;;;;;;;;;;;;25.30;62.44;99901.66;7396298;19;1110;-48
2023/08/02 01:11:34;;;;;;;;;;;;;;;25.32;62.53;99902.28;7398363;19;1041;-48
2023/08/02 01:14:06;;;;;;;;;;;;;;;25.30;62.54;99896.25;7397954;19;1858;-48
2023/08/02 01:16:36;;;;;;;;;;;;;;;25.36;62.58;99905.44;7395695;19;1839;-48
2023/08/02 01:19:10;;;;;;;;;;;;;;;25.36;62.68;99902.72;7396822;19;1487;-49
2023/08/02 01:21:41;;;;;;;;;;;;;;;25.26;62.81;99900.38;7396878;19;1756;-48
2023/08/02 01:24:10;;;;;;;;;;;;;;;25.23;62.81;99895.38;7397560;19;1786;-48
2023/08/02 01:26:39;;;;;;;;;;;;;;;25.27;62.97;99902.06;7404134;19;1685;-48
2023/08/02 01:29:09;;;;;;;;;;;;;;;25.32;62.59;99907.69;7404050;19;1807;-48
2023/08/02 01:31:39;;;;;;;;;;;;;;;25.32;62.51;99883.34;7403995;19;1862;-48
2023/08/02 01:34:08;;;;;;;;;;;;;;;25.26;62.53;99896.84;7402964;19;1676;-48
2023/08/02 01:36:36;;;;;;;;;;;;;;;25.35;62.77;99898.38;7399633;19;1867;-48
2023/08/02 01:39:08;;;;;;;;;;;;;;;25.28;62.51;99898.31;7404353;19;1929;-48
2023/08/02 01:41:36;;;;;;;;;;;;;;;25.32;62.64;99902.28;7403253;19;1182;-48
2023/08/02 01:44:05;;;;;;;;;;;;;;;25.39;62.24;99895.06;7403307;19;2012;-48
2023/08/02 01:46:33;;;;;;;;;;;;;;;25.38;62.33;99896.06;7403453;19;1642;-48
2023/08/02 01:49:01;;;;;;;;;;;;;;;25.37;62.49;99891.72;7404299;19;1145;-48
2023/08/02 01:51:30;;;;;;;;;;;;;;;25.29;62.59;99889.16;7402746;19;1173;-48
2023/08/02 01:53:58;;;;;;;;;;;;;;;25.28;62.51;99882.06;7404023;19;1546;-48
2023/08/02 01:56:29;;;;;;;;;;;;;;;25.26;62.73;99884.16;7401641;19;1855;-48
2023/08/02 01:58:57;;;;;;;;;;;;;;;25.28;62.51;99894.78;7404001;19;1262;-49
2023/08/02 02:01:26;;;;;;;;;;;;;;;25.28;62.75;99892.91;7403723;19;1289;-48
2023/08/02 02:03:54;;;;;;;;;;;;;;;25.32;62.50;99899.59;7402992;19;1708;-48
2023/08/02 02:06:22;;;;;;;;;;;;;;;25.30;62.59;99890.81;7402229;19;1552;-48
2023/08/02 02:08:50;;;;;;;;;;;;;;;25.28;62.57;99900.19;7403349;19;1542;-48
2023/08/02 02:11:19;;;;;;;;;;;;;;;25.28;62.85;99902.91;7403742;19;1680;-48
2023/08/02 02:13:50;;;;;;;;;;;;;;;25.30;62.42;99895.41;7402864;19;1823;-49
2023/08/02 02:16:18;;;;;;;;;;;;;;;25.37;62.32;99897.13;7400704;19;1851;-48
2023/08/02 02:18:46;;;;;;;;;;;;;;;25.30;62.46;99896.25;7404432;19;1035;-48
2023/08/02 02:21:14;;;;;;;;;;;;;;;25.32;62.47;99905.00;7401081;19;1956;-48
2023/08/02 02:23:43;;;;;;;;;;;;;;;25.33;62.50;99911.28;7401279;19;2040;-48
2023/08/02 02:26:11;;;;;;;;;;;;;;;25.30;62.65;99896.25;7402037;19;2105;-48
2023/08/02 02:28:39;;;;;;;;;;;;;;;25.38;62.50;99915.03;7402642;19;1712;-48
2023/08/02 02:31:10;;;;;;;;;;;;;;;25.36;62.33;99903.56;7400883;19;1664;-49
2023/08/02 02:33:38;;;;;;;;;;;;;;;25.35;62.39;99896.50;7401438;19;1952;-49
2023/08/02 02:36:07;;;;;;;;;;;;;;;25.32;62.49;99905.00;7398885;19;1830;-49
2023/08/02 02:38:35;;;;;;;;;;;;;;;25.34;62.35;99907.50;7399558;19;1667;-49
2023/08/02 02:41:03;;;;;;;;;;;;;;;25.37;62.56;99912.53;7400766;19;1534;-49
2023/08/02 02:43:31;;;;;;;;;;;;;;;25.40;62.28;99912.13;7401645;19;1537;-48
2023/08/02 02:46:00;;;;;;;;;;;;;;;25.39;62.35;99914.00;7401021;19;1623;-49
2023/08/02 02:48:31;;;;;;;;;;;;;;;25.37;62.43;99907.97;7401797;19;1949;-49
2023/08/02 02:50:59;;;;;;;;;;;;;;;25.38;62.28;99912.31;7400422;19;1989;-49
2023/08/02 02:53:27;;;;;;;;;;;;;;;25.35;62.52;99910.03;7400537;19;1479;-48
2023/08/02 02:55:56;;;;;;;;;;;;;;;25.36;62.38;99917.09;7399892;19;1875;-48
2023/08/02 02:58:24;;;;;;;;;;;;;;;25.33;62.41;99901.28;7401470;19;1297;-49
2023/08/02 03:00:53;;;;;;;;;;;;;;;25.28;62.64;99892.91;7398684;19;1564;-48
2023/08/02 03:03:22;;;;;;;;;;;;;;;25.30;62.59;99906.25;7397976;19;1501;-48
2023/08/02 03:05:54;;;;;;;;;;;;;;;25.30;62.64;99904.34;7397455;19;1851;-51
2023/08/02 03:08:22;;;;;;;;;;;;;;;25.23;62.49;99902.63;7400536;19;1632;-48
2023/08/02 03:10:51;;;;;;;;;;;;;;;25.37;62.45;99902.53;7402058;19;1101;-48
2023/08/02 03:13:19;;;;;;;;;;;;;;;25.29;62.67;99883.75;7399951;19;2205;-49
2023/08/02 03:15:47;;;;;;;;;;;;;;;25.27;62.82;99906.63;7398975;19;1841;-48
2023/08/02 03:18:15;;;;;;;;;;;;;;;25.29;62.59;99897.28;7399674;19;1420;-49
2023/08/02 03:20:44;;;;;;;;;;;;;;;25.35;62.53;99904.63;7399031;19;1391;-49
2023/08/02 03:23:15;;;;;;;;;;;;;;;25.27;62.47;99904.78;7399098;19;1731;-49
2023/08/02 03:25:43;;;;;;;;;;;;;;;25.32;62.51;99905.00;7401230;19;1672;-49
2023/08/02 03:28:11;;;;;;;;;;;;;;;25.27;62.57;99904.78;7400267;19;1345;-49
2023/08/02 03:30:39;;;;;;;;;;;;;;;25.24;62.70;99898.91;7400815;19;1738;-49
2023/08/02 03:33:08;;;;;;;;;;;;;;;25.28;62.86;99892.91;7400258;19;1657;-49
2023/08/02 03:35:36;;;;;;;;;;;;;;;25.27;62.80;99896.66;7399864;19;1847;-48
2023/08/02 03:38:04;;;;;;;;;;;;;;;25.32;62.68;99891.47;7400454;19;1455;-49
2023/08/02 03:40:35;;;;;;;;;;;;;;;25.29;62.45;99901.88;7397989;19;1897;-49
2023/08/02 03:43:04;;;;;;;;;;;;;;;25.22;62.63;99904.50;7398929;19;1586;-49
2023/08/02 03:45:32;;;;;;;;;;;;;;;25.32;62.55;99913.13;7399834;19;1329;-49
2023/08/02 03:48:00;;;;;;;;;;;;;;;25.31;62.38;99916.03;7398128;19;1305;-49
2023/08/02 03:50:29;;;;;;;;;;;;;;;25.37;62.46;99913.38;7397986;19;1451;-48
2023/08/02 03:52:58;;;;;;;;;;;;;;;25.34;62.35;99902.94;7397713;19;1829;-49
2023/08/02 03:55:26;;;;;;;;;;;;;;;25.37;62.34;99912.53;7397857;19;1857;-48
2023/08/02 03:57:57;;;;;;;;;;;;;;;25.33;62.61;99924.81;7398208;19;1751;-49
2023/08/02 04:00:25;;;;;;;;;;;;;;;25.33;62.66;99922.09;7400220;19;1723;-49
2023/08/02 04:02:54;;;;;;;;;;;;;;;25.35;62.59;99920.03;7399287;19;1403;-48
2023/08/02 04:05:22;;;;;;;;;;;;;;;25.46;62.33;99924.88;7397435;19;1791;-49
2023/08/02 04:07:50;;;;;;;;;;;;;;;25.49;62.21;99926.34;7398790;19;1039;-49
2023/08/02 04:10:18;;;;;;;;;;;;;;;25.45;62.04;99925.91;7398576;19;1570;-49
2023/08/02 04:12:47;;;;;;;;;;;;;;;25.50;62.12;99917.19;7397853;19;1466;-48
2023/08/02 04:15:18;;;;;;;;;;;;;;;25.52;62.29;99925.94;7395642;19;1901;-48
2023/08/02 04:17:48;;;;;;;;;;;;;;;25.51;61.94;99918.88;7397700;19;1298;-49
2023/08/02 04:20:17;;;;;;;;;;;;;;;25.54;61.98;99927.41;7397720;19;1233;-49
2023/08/02 04:22:47;;;;;;;;;;;;;;;25.58;61.74;99923.25;7397619;19;1513;-49
2023/08/02 04:25:15;;;;;;;;;;;;;;;25.55;61.93;99933.69;7399073;19;1478;-48
2023/08/02 04:27:44;;;;;;;;;;;;;;;25.53;62.04;99909.50;7398451;19;1955;-51
2023/08/02 04:30:12;;;;;;;;;;;;;;;25.56;61.79;99906.38;7400151;19;1008;-48
2023/08/02 04:32:46;;;;;;;;;;;;;;;25.53;62.07;99906.81;7398696;19;1472;-49
2023/08/02 04:35:14;;;;;;;;;;;;;;;25.54;61.85;99918.47;7397314;19;1948;-48
2023/08/02 04:37:42;;;;;;;;;;;;;;;25.43;62.22;99921.72;7395660;19;1852;-48
2023/08/02 04:40:12;;;;;;;;;;;;;;;25.46;62.13;99915.91;7398240;19;1482;-48
2023/08/02 04:42:41;;;;;;;;;;;;;;;25.39;62.27;99911.31;7396505;19;1692;-48
2023/08/02 04:45:10;;;;;;;;;;;;;;;25.35;62.27;99910.03;7398978;19;1771;-48
2023/08/02 04:47:38;;;;;;;;;;;;;;;25.37;62.39;99928.78;7398563;19;1668;-48
2023/08/02 04:50:09;;;;;;;;;;;;;;;25.29;62.75;99910.81;7397076;19;1396;-48
2023/08/02 04:52:38;;;;;;;;;;;;;;;25.34;62.71;99927.28;7395938;19;1600;-48
2023/08/02 04:55:08;;;;;;;;;;;;;;;25.45;62.31;99919.69;7397969;19;1530;-48
2023/08/02 04:57:36;;;;;;;;;;;;;;;25.50;62.03;99911.78;7395023;19;1852;-48
2023/08/02 05:00:04;;;;;;;;;;;;;;;25.59;61.88;99910.59;7395287;19;1531;-48
2023/08/02 05:02:36;;;;;;;;;;;;;;;25.50;62.25;99906.34;7396474;19;1505;-48
2023/08/02 05:05:04;;;;;;;;;;;;;;;25.44;62.26;99902.56;7396480;19;1229;-48
2023/08/02 05:07:36;;;;;;;;;;;;;;;25.42;62.53;99915.47;7397686;19;1012;-48
2023/08/02 05:10:05;;;;;;;;;;;;;;;25.45;62.31;99920.50;7398126;19;1468;-48
2023/08/02 05:12:34;;;;;;;;;;;;;;;25.57;62.19;99910.78;7397527;19;1841;-48
2023/08/02 05:15:02;;;;;;;;;;;;;;;25.53;62.08;99908.69;7396702;19;1499;-48
2023/08/02 05:17:31;;;;;;;;;;;;;;;25.51;62.15;99914.28;7395684;19;1831;-48
2023/08/02 05:19:59;;;;;;;;;;;;;;;25.51;62.07;99906.16;7397020;19;2074;-48
2023/08/02 14:17:51;;;;;;;;;;;;;;;25.43;63.74;99913.59;7389134;19;3383;-41
2023/08/02 14:20:20;;;;;;;;;;;;;;;25.53;63.32;99906.81;7392749;19;1209;-41
2023/08/02 14:22:48;;;;;;;;;;;;;;;25.48;63.60;99903.00;7393890;19;1208;-41
2023/08/02 14:25:16;;;;;;;;;;;;;;;25.51;63.59;99908.03;7394450;19;1625;-42
2023/08/02 14:27:45;;;;;;;;;;;;;;;25.48;63.47;99913.84;7394652;19;1216;-41
2023/08/02 14:30:13;;;;;;;;;;;;;;;25.45;63.67;99903.44;7392068;19;1241;-41
2023/08/02 14:32:42;;;;;;;;;;;;;;;25.49;63.56;99921.78;7393109;19;1552;-41
2023/08/02 14:35:13;;;;;;;;;;;;;;;25.40;63.55;99918.38;7400786;19;1513;-41
2023/08/02 14:37:41;;;;;;;;;;;;;;;25.40;63.84;99923.78;7400428;19;1863;-41
2023/08/02 14:40:11;;;;;;;;;;;;;;;25.40;63.93;99922.94;7401114;19;1264;-41
2023/08/02 14:42:39;;;;;;;;;;;;;;;25.46;63.64;99930.28;7401327;19;1942;-41
2023/08/02 14:45:08;;;;;;;;;;;;;;;25.54;63.53;99918.47;7401341;19;1548;-41
2023/08/02 14:47:36;;;;;;;;;;;;;;;25.54;63.58;99918.47;7401495;19;1612;-41
2023/08/02 14:50:05;;;;;;;;;;;;;;;25.46;63.64;99927.56;7401065;19;1284;-41
2023/08/02 14:52:36;;;;;;;;;;;;;;;25.51;63.53;99927.00;7399013;19;1257;-41
2023/08/02 14:55:04;;;;;;;;;;;;;;;25.63;63.25;99916.44;7400718;19;1209;-41
2023/08/02 14:57:34;;;;;;;;;;;;;;;25.72;62.96;99926.88;7397951;19;1851;-42
2023/08/02 15:00:02;;;;;;;;;;;;;;;25.61;63.33;99919.34;7401639;19;1746;-41
2023/08/02 15:02:30;;;;;;;;;;;;;;;25.63;62.92;99919.16;7400556;19;1957;-42
2023/08/02 15:04:59;;;;;;;;;;;;;;;25.59;63.53;99934.94;7399294;19;1862;-41
2023/08/02 15:07:27;;;;;;;;;;;;;;;25.61;63.14;99916.63;7400261;19;1710;-41
2023/08/02 15:09:58;;;;;;;;;;;;;;;25.60;63.38;99918.53;7399256;19;1447;-41
2023/08/02 15:12:26;;;;;;;;;;;;;;;25.69;63.07;99919.19;7398085;19;1448;-41
2023/08/02 15:14:55;;;;;;;;;;;;;;;25.77;62.73;99916.28;7392203;19;1313;-42
2023/08/02 15:17:23;;;;;;;;;;;;;;;25.84;62.66;99907.38;7389779;19;1857;-41
2023/08/02 15:19:51;;;;;;;;;;;;;;;25.65;63.13;99917.91;7395469;19;1779;-41
2023/08/02 15:22:19;;;;;;;;;;;;;;;25.70;62.83;99909.16;7397592;19;1030;-41
2023/08/02 15:24:48;;;;;;;;;;;;;;;25.75;62.77;99901.28;7392632;19;1873;-42
2023/08/02 15:27:18;;;;;;;;;;;;;;;25.84;62.65;99901.94;7394711;19;1236;-41
2023/08/02 15:29:47;;;;;;;;;;;;;;;25.69;63.04;99913.75;7398099;19;1537;-41
2023/08/02 15:32:15;;;;;;;;;;;;;;;25.58;63.40;99925.16;7392641;19;1340;-41
2023/08/02 15:34:44;;;;;;;;;;;;;;;25.52;63.34;99926.78;7395705;19;1260;-41
2023/08/02 15:37:13;;;;;;;;;;;;;;;25.50;63.64;99918.00;7393570;19;1853;-41
2023/08/02 15:39:41;;;;;;;;;;;;;;;25.46;63.78;99934.88;7394620;19;1874;-42
2023/08/02 15:42:10;;;;;;;;;;;;;;;25.57;63.50;99931.63;7395378;19;1546;-41
2023/08/02 15:44:41;;;;;;;;;;;;;;;25.54;63.69;99942.81;7393254;19;1707;-41
2023/08/02 15:47:09;;;;;;;;;;;;;;;25.55;63.35;99933.69;7396059;19;1811;-41
2023/08/02 15:49:37;;;;;;;;;;;;;;;25.52;63.39;99944.91;7398872;19;1506;-41
2023/08/02 15:52:06;;;;;;;;;;;;;;;25.57;63.36;99912.66;7396925;19;1818;-41
2023/08/02 15:54:34;;;;;;;;;;;;;;;25.55;63.28;99950.75;7398957;19;1490;-42
2023/08/02 15:57:03;;;;;;;;;;;;;;;25.54;63.57;99954.47;7397934;19;1833;-42
2023/08/02 15:59:31;;;;;;;;;;;;;;;25.49;63.50;99951.56;7399239;19;1397;-41
2023/08/02 16:02:02;;;;;;;;;;;;;;;25.47;63.54;99952.78;7399496;19;1677;-41
2023/08/02 16:04:31;;;;;;;;;;;;;;;25.59;63.41;99962.84;7400467;19;1019;-41
2023/08/02 16:06:59;;;;;;;;;;;;;;;25.51;63.80;99949.47;7398749;19;1511;-42
2023/08/02 16:09:27;;;;;;;;;;;;;;;25.59;63.19;99953.91;7398341;19;1340;-42
2023/08/02 16:11:55;;;;;;;;;;;;;;;25.55;63.56;99963.47;7398285;19;1274;-41
2023/08/02 16:14:24;;;;;;;;;;;;;;;25.63;63.18;99966.00;7398973;19;1106;-41
2023/08/02 16:16:53;;;;;;;;;;;;;;;25.63;63.25;99960.59;7397852;19;1848;-41
2023/08/02 16:19:24;;;;;;;;;;;;;;;25.56;63.43;99965.13;7397938;19;1162;-41
2023/08/02 16:21:52;;;;;;;;;;;;;;;25.50;63.85;99966.75;7398377;19;1485;-41
2023/08/02 16:24:20;;;;;;;;;;;;;;;25.58;63.54;99972.00;7397945;19;1299;-42
2023/08/02 16:26:48;;;;;;;;;;;;;;;25.63;63.08;99965.19;7393181;19;1304;-41
2023/08/02 16:29:17;;;;;;;;;;;;;;;25.49;63.56;99959.66;7394325;19;1800;-41
2023/08/02 16:31:46;;;;;;;;;;;;;;;25.49;63.61;99992.16;7397130;19;1269;-41
2023/08/02 16:34:15;;;;;;;;;;;;;;;25.57;63.36;99977.63;7397900;19;1557;-42
2023/08/02 16:36:46;;;;;;;;;;;;;;;25.55;63.61;100001.38;7395169;19;1838;-41
2023/08/02 16:39:15;;;;;;;;;;;;;;;25.50;63.68;99991.09;7396538;19;1244;-41
2023/08/02 16:41:43;;;;;;;;;;;;;;;25.56;63.78;99997.59;7395741;19;1229;-41
2023/08/02 16:44:12;;;;;;;;;;;;;;;25.63;63.29;99989.56;7397807;19;1242;-41
2023/08/02 16:46:41;;;;;;;;;;;;;;;25.59;63.29;100002.63;7395759;19;1660;-44
2023/08/02 16:49:09;;;;;;;;;;;;;;;25.73;63.22;100009.81;7397036;19;1665;-41
2023/08/02 16:51:37;;;;;;;;;;;;;;;25.63;63.36;100011.22;7396783;19;1190;-41
2023/08/02 16:54:08;;;;;;;;;;;;;;;25.66;63.16;100017.03;7395369;19;1293;-41
2023/08/02 16:56:36;;;;;;;;;;;;;;;25.65;63.10;100007.25;7396233;19;1114;-41
2023/08/02 16:59:05;;;;;;;;;;;;;;;25.59;63.55;100013.47;7394323;19;1856;-41
2023/08/02 17:01:33;;;;;;;;;;;;;;;25.62;63.44;100014.94;7395947;19;1577;-41
2023/08/02 17:04:01;;;;;;;;;;;;;;;25.51;63.44;100013.63;7393039;19;1861;-41
2023/08/02 17:06:32;;;;;;;;;;;;;;;25.53;63.46;100006.13;7392477;19;1145;-41
2023/08/02 17:09:00;;;;;;;;;;;;;;;25.59;63.47;100021.59;7396281;19;1434;-41
2023/08/02 17:11:31;;;;;;;;;;;;;;;25.63;63.49;100019.34;7392379;19;1813;-41
2023/08/02 17:13:59;;;;;;;;;;;;;;;25.66;63.19;100025.16;7392444;19;1217;-42
2023/08/02 17:16:27;;;;;;;;;;;;;;;25.74;62.89;100016.88;7391013;19;1494;-42
2023/08/02 17:18:56;;;;;;;;;;;;;;;25.62;63.28;100032.00;7391495;19;1846;-41
2023/08/02 17:21:24;;;;;;;;;;;;;;;25.78;62.67;100029.03;7392909;19;1214;-41
2023/08/02 17:23:52;;;;;;;;;;;;;;;25.82;62.83;100024.03;7391309;19;1192;-41
2023/08/02 17:26:20;;;;;;;;;;;;;;;25.87;62.72;100034.28;7390909;19;1482;-41
2023/08/02 17:28:52;;;;;;;;;;;;;;;25.80;62.50;100024.25;7391180;19;1564;-41
2023/08/02 17:31:20;;;;;;;;;;;;;;;25.83;62.55;100031.13;7391116;19;1569;-41
2023/08/02 17:33:49;;;;;;;;;;;;;;;25.89;62.75;100034.91;7392308;19;1746;-41
2023/08/02 17:36:17;;;;;;;;;;;;;;;25.94;62.45;100041.44;7391435;19;1391;-41
2023/08/02 17:38:45;;;;;;;;;;;;;;;25.90;62.59;100040.13;7390522;19;1837;-41
2023/08/02 17:41:14;;;;;;;;;;;;;;;25.87;62.65;100053.25;7395430;19;1716;-41
2023/08/02 17:43:43;;;;;;;;;;;;;;;25.89;62.37;100045.75;7397726;19;1066;-41
2023/08/02 17:46:13;;;;;;;;;;;;;;;25.91;62.62;100051.84;7395795;19;1615;-41
2023/08/02 17:48:42;;;;;;;;;;;;;;;25.95;62.33;100056.66;7395985;19;1862;-42
2023/08/02 17:51:10;;;;;;;;;;;;;;;25.91;62.48;100043.72;7396495;19;1513;-41
2023/08/02 17:53:39;;;;;;;;;;;;;;;25.89;62.38;100062.00;7394339;19;1445;-42
2023/08/02 17:56:07;;;;;;;;;;;;;;;25.87;62.71;100058.66;7396538;19;1411;-41
2023/08/02 17:58:37;;;;;;;;;;;;;;;25.91;62.56;100063.50;7392837;19;1838;-41
2023/08/02 18:01:18;;;;;;;;;;;;;;;25.84;62.80;100056.34;7394882;19;1376;-41
2023/08/02 18:03:47;;;;;;;;;;;;;;;25.90;62.46;100069.94;7394294;19;1469;-42
2023/08/02 18:06:15;;;;;;;;;;;;;;;25.86;62.67;100078.63;7394652;19;1304;-41
2023/08/02 18:08:44;;;;;;;;;;;;;;;25.91;62.35;100076.22;7398777;19;1426;-41
2023/08/02 18:11:12;;;;;;;;;;;;;;;25.92;62.34;100073.28;7400774;19;1475;-41
2023/08/02 18:13:40;;;;;;;;;;;;;;;25.94;62.27;100087.50;7403478;19;1177;-41
2023/08/02 18:16:09;;;;;;;;;;;;;;;25.80;62.69;100093.81;7401050;19;1775;-41
2023/08/02 18:18:40;;;;;;;;;;;;;;;25.87;62.54;100102.00;7399548;19;1945;-41
2023/08/02 18:21:08;;;;;;;;;;;;;;;25.77;62.99;100095.03;7401171;19;1277;-41
2023/08/02 18:23:36;;;;;;;;;;;;;;;25.88;62.59;100079.28;7402271;19;1505;-41
2023/08/02 18:26:05;;;;;;;;;;;;;;;25.84;62.76;100086.13;7401978;19;1430;-42
2023/08/02 18:28:33;;;;;;;;;;;;;;;25.75;62.82;100099.81;7402314;19;1275;-42
2023/08/02 18:31:02;;;;;;;;;;;;;;;25.86;62.64;100105.72;7403333;19;1478;-42
2023/08/02 18:33:31;;;;;;;;;;;;;;;25.96;62.18;100122.50;7402872;19;1463;-42
2023/08/02 18:36:12;;;;;;;;;;;;;;;26.02;62.18;100108.16;7401802;19;1799;-42
2023/08/02 18:38:41;;;;;;;;;;;;;;;25.98;62.52;100106.88;7400723;19;1825;-41
2023/08/02 18:41:17;;;;;;;;;;;;;;;25.97;62.16;100100.63;7402050;19;1600;-41
2023/08/02 18:43:46;;;;;;;;;;;;;;;25.94;62.42;100094.75;7402374;19;1561;-42
2023/08/02 18:46:15;;;;;;;;;;;;;;;25.91;62.41;100112.25;7402330;19;1498;-42
2023/08/02 18:48:46;;;;;;;;;;;;;;;25.83;62.60;100112.38;7400677;19;1562;-42
2023/08/02 18:51:17;;;;;;;;;;;;;;;25.80;62.76;100116.31;7402025;19;1151;-45
2023/08/02 18:53:47;;;;;;;;;;;;;;;25.96;62.38;100117.06;7402411;19;1040;-41
2023/08/02 18:56:16;;;;;;;;;;;;;;;25.89;62.43;100127.00;7401959;19;1544;-42
2023/08/02 18:58:45;;;;;;;;;;;;;;;26.02;62.30;100115.44;7399087;19;1850;-41
2023/08/02 19:01:13;;;;;;;;;;;;;;;26.02;62.32;100121.69;7401163;19;1822;-41
2023/08/02 19:03:41;;;;;;;;;;;;;;;26.02;62.07;100127.13;7401220;19;1756;-42
2023/08/02 19:06:09;;;;;;;;;;;;;;;25.94;62.22;100124.56;7401741;19;1457;-42
2023/08/02 19:08:41;;;;;;;;;;;;;;;25.98;62.37;100126.69;7399301;19;1407;-42
2023/08/02 19:11:14;;;;;;;;;;;;;;;25.99;61.93;100122.13;7401378;19;1395;-42
2023/08/02 19:13:42;;;;;;;;;;;;;;;25.99;62.21;100120.25;7402168;19;1047;-42
2023/08/02 19:16:12;;;;;;;;;;;;;;;25.99;62.30;100138.38;7398980;19;1996;-42
2023/08/02 19:18:42;;;;;;;;;;;;;;;26.05;61.96;100143.00;7397637;19;1856;-42
2023/08/02 19:21:11;;;;;;;;;;;;;;;25.97;62.29;100146.69;7399788;19;1815;-41
2023/08/02 19:23:43;;;;;;;;;;;;;;;25.94;62.25;100132.69;7401121;19;1858;-42
2023/08/02 19:26:12;;;;;;;;;;;;;;;25.96;62.21;100144.16;7399766;19;1752;-42
2023/08/02 19:28:41;;;;;;;;;;;;;;;26.03;62.26;100127.97;7400241;19;1798;-42
2023/08/02 19:31:09;;;;;;;;;;;;;;;25.99;62.04;100141.91;7400683;19;1481;-42
2023/08/02 19:33:39;;;;;;;;;;;;;;;25.96;62.07;100130.63;7398949;19;1442;-42
2023/08/02 19:36:07;;;;;;;;;;;;;;;25.92;62.23;100143.72;7399755;19;1549;-43
2023/08/02 19:38:35;;;;;;;;;;;;;;;25.90;62.19;100139.50;7397786;19;1849;-42
2023/08/02 19:41:06;;;;;;;;;;;;;;;25.88;62.40;100131.56;7400128;19;1292;-42
2023/08/02 19:43:34;;;;;;;;;;;;;;;25.94;62.20;100138.09;7398041;19;1572;-42
2023/08/02 19:46:03;;;;;;;;;;;;;;;26.01;62.07;100149.03;7399974;19;1234;-41
2023/08/02 19:48:34;;;;;;;;;;;;;;;25.97;62.30;100151.28;7399902;19;1261;-41
2023/08/02 19:51:03;;;;;;;;;;;;;;;25.92;62.40;100148.31;7401305;19;2060;-41
2023/08/02 19:53:31;;;;;;;;;;;;;;;25.92;62.22;100142.88;7399930;19;1522;-42
2023/08/02 19:55:59;;;;;;;;;;;;;;;25.92;62.28;100173.50;7398451;19;1583;-41
2023/08/02 19:58:30;;;;;;;;;;;;;;;25.95;62.06;100165.00;7399843;19;1833;-42
2023/08/02 20:00:58;;;;;;;;;;;;;;;25.95;62.17;100170.44;7398619;19;1485;-42
2023/08/02 20:03:28;;;;;;;;;;;;;;;25.91;62.35;100171.84;7399326;19;1485;-41
2023/08/02 20:05:59;;;;;;;;;;;;;;;25.89;62.33;100159.53;7398242;19;1387;-41
2023/08/02 20:08:29;;;;;;;;;;;;;;;25.91;62.49;100155.59;7399163;19;1739;-41
2023/08/02 20:10:59;;;;;;;;;;;;;;;25.93;62.32;100160.84;7400561;19;1107;-41
2023/08/02 20:13:33;;;;;;;;;;;;;;;25.97;61.96;100165.66;7399121;19;1557;-41
2023/08/02 20:16:02;;;;;;;;;;;;;;;25.90;62.17;100159.34;7399778;19;1509;-42
2023/08/02 20:18:30;;;;;;;;;;;;;;;25.90;62.44;100153.06;7395637;19;1929;-42
2023/08/02 20:20:59;;;;;;;;;;;;;;;25.92;62.38;100165.38;7398605;19;1546;-42
2023/08/02 20:23:27;;;;;;;;;;;;;;;25.91;62.27;100190.00;7396649;19;1160;-41
2023/08/02 20:25:56;;;;;;;;;;;;;;;25.92;62.26;100164.56;7399871;19;1165;-42
2023/08/02 20:28:25;;;;;;;;;;;;;;;25.93;62.36;100177.91;7399833;19;1118;-41
2023/08/02 20:30:59;;;;;;;;;;;;;;;25.91;62.34;100173.75;7394655;19;1872;-41
2023/08/02 20:33:30;;;;;;;;;;;;;;;25.91;62.48;100176.44;7398208;19;1191;-41
2023/08/02 20:35:59;;;;;;;;;;;;;;;25.80;62.45;100178.63;7396720;19;1153;-42
2023/08/02 20:38:29;;;;;;;;;;;;;;;25.83;62.34;100179.25;7397833;19;1858;-41
2023/08/02 20:40:57;;;;;;;;;;;;;;;25.86;62.19;100187.81;7397415;19;1569;-42
2023/08/02 20:43:25;;;;;;;;;;;;;;;25.80;62.60;100183.19;7398167;19;1102;-42
2023/08/02 20:45:56;;;;;;;;;;;;;;;25.82;62.69;100180.28;7397631;19;1019;-41
2023/08/02 20:48:25;;;;;;;;;;;;;;;25.82;62.29;100186.53;7398875;19;1253;-41
2023/08/02 20:50:53;;;;;;;;;;;;;;;25.82;62.80;100186.53;7397342;19;1834;-41
2023/08/02 20:53:21;;;;;;;;;;;;;;;25.83;62.63;100173.84;7396765;19;1577;-41
2023/08/02 20:55:50;;;;;;;;;;;;;;;25.77;62.47;100189.84;7399164;19;1746;-41
2023/08/02 20:58:22;;;;;;;;;;;;;;;25.81;62.48;100179.44;7395873;19;1834;-41
2023/08/02 21:00:55;;;;;;;;;;;;;;;25.78;62.54;100179.81;7397428;19;1696;-41
2023/08/02 21:03:26;;;;;;;;;;;;;;;25.78;62.83;100194.22;7397181;19;1411;-41
2023/08/02 21:05:54;;;;;;;;;;;;;;;25.76;62.53;100182.72;7397364;19;1962;-41
2023/08/02 21:08:23;;;;;;;;;;;;;;;25.77;62.43;100189.00;7397570;19;1833;-41
2023/08/02 21:10:51;;;;;;;;;;;;;;;25.79;62.47;100176.94;7396759;19;1034;-41
2023/08/02 21:13:21;;;;;;;;;;;;;;;25.82;62.42;100183.81;7397679;19;1458;-41
2023/08/02 21:15:50;;;;;;;;;;;;;;;25.76;62.41;100182.72;7397263;19;1607;-41
2023/08/02 21:18:19;;;;;;;;;;;;;;;25.83;62.61;100181.97;7396250;19;1835;-41
2023/08/02 21:20:50;;;;;;;;;;;;;;;25.79;62.64;100179.63;7395632;19;1385;-42
2023/08/02 21:23:21;;;;;;;;;;;;;;;25.75;62.85;100175.66;7396226;19;1209;-41
2023/08/02 21:25:50;;;;;;;;;;;;;;;25.77;62.68;100184.41;7396281;19;1552;-41
2023/08/02 21:28:20;;;;;;;;;;;;;;;25.84;62.57;100189.06;7394856;19;1620;-41
2023/08/02 21:30:49;;;;;;;;;;;;;;;25.76;62.54;100188.13;7396283;19;1605;-41
2023/08/02 21:33:22;;;;;;;;;;;;;;;25.72;62.72;100176.03;7396263;19;1819;-41
2023/08/02 21:35:53;;;;;;;;;;;;;;;25.75;62.74;100186.47;7394955;19;1549;-41
2023/08/02 21:38:23;;;;;;;;;;;;;;;25.76;62.45;100180.00;7396567;19;1851;-41
2023/08/02 21:40:53;;;;;;;;;;;;;;;25.76;62.59;100190.84;7394731;19;1541;-42
2023/08/02 21:43:21;;;;;;;;;;;;;;;25.75;62.74;100180.22;7402495;19;1332;-41
2023/08/02 21:45:53;;;;;;;;;;;;;;;25.73;62.64;100196.66;7404344;19;1118;-41
2023/08/02 21:48:22;;;;;;;;;;;;;;;25.80;62.62;100194.00;7400210;19;1849;-42
2023/08/02 21:50:53;;;;;;;;;;;;;;;25.77;62.68;100194.41;7403410;19;1489;-41
2023/08/02 21:53:22;;;;;;;;;;;;;;;25.73;62.62;100193.97;7401585;19;1278;-41
2023/08/02 21:55:52;;;;;;;;;;;;;;;25.76;62.67;100196.25;7401612;19;1442;-41
2023/08/02 21:58:27;;;;;;;;;;;;;;;25.74;62.55;100217.28;7402262;19;1174;-41